Alyssa Ann — WBG4515 — position and weather

sailwx.info

Track history (hours):
 
Tides and Currents Weather Stations Pressure Air Temp Water Temp Dewpoint Dewpoint Depression Visibility Wind Speed Wind Dir Waves Ship Positions

Alyssa Ann

Owner: Harley Marine Services, INC, SEATTLE, WA. More information available from US FCC via Universal Licensing System and Coast Guard Vessel Documentation Center.

Last reported at 2018-Feb-17 16:39 UTC. Time now 2018-Feb-18 06:44 UTC.
Position N 47°16' W 122°24'.

MMSI: 366979708.

Date/timePositionNaut miles runAvg speedWind from/ knotsBaromVisibWave heightAir tempDewpointWater temp
2018-Feb-17 16:39N 47°16' W 122°24'0 0.2
2018-Feb-17 16:27N 47°16' W 122°24'0 0.0
2018-Feb-17 15:35N 47°16' W 122°24'0 0.0
2018-Feb-15 15:29N 47°16' W 122°24'1 2.1
2018-Feb-15 14:56N 47°15' W 122°23'2 3.2
2018-Feb-15 14:22N 47°17' W 122°25'0 0.0
2018-Feb-15 13:09N 47°17' W 122°25'1 0.1
2018-Feb-15 04:06N 47°16' W 122°24'0 4.5
2018-Feb-15 04:00N 47°16' W 122°24'1 0.7
2018-Feb-15 02:51N 47°17' W 122°25'1 0.9
2018-Feb-15 02:16N 47°17' W 122°25'2 0.2
2018-Feb-14 18:43N 47°16' W 122°23'0 0.3
2018-Feb-14 18:26N 47°16' W 122°23'1 0.1
2018-Feb-14 02:33N 47°17' W 122°24'0 5.7
2018-Feb-14 02:29N 47°17' W 122°25'1 1.8
2018-Feb-14 02:00N 47°17' W 122°26'1 2.5
2018-Feb-14 01:30N 47°18' W 122°28'3 6.8
2018-Feb-14 01:00N 47°20' W 122°32'3 6.1
2018-Feb-14 00:30N 47°23' W 122°32'3 6.7
2018-Feb-14 00:00N 47°26' W 122°31'3 6.7
2018-Feb-13 23:30N 47°29' W 122°30'3 6.1
2018-Feb-13 23:00N 47°32' W 122°31'1 2.9
2018-Feb-13 22:30N 47°34' W 122°32'0 0.0
2018-Feb-13 22:00N 47°34' W 122°32'0 0.0
2018-Feb-13 21:28N 47°34' W 122°32'0 0.0
2018-Feb-13 20:58N 47°34' W 122°32'0 0.0
2018-Feb-13 20:28N 47°34' W 122°32'0 0.0
2018-Feb-13 19:55N 47°34' W 122°32'0 0.0
2018-Feb-13 19:28N 47°34' W 122°32'0 0.0
2018-Feb-13 18:58N 47°34' W 122°32'0 0.0
2018-Feb-13 18:28N 47°34' W 122°32'0 0.0
2018-Feb-13 17:58N 47°34' W 122°32'0 0.0
2018-Feb-13 17:28N 47°34' W 122°32'0 0.0
2018-Feb-13 16:58N 47°34' W 122°32'0 0.0
2018-Feb-13 16:28N 47°34' W 122°32'0 0.0
2018-Feb-13 15:58N 47°34' W 122°32'0 0.0
2018-Feb-13 15:28N 47°34' W 122°32'0 0.0
2018-Feb-13 14:58N 47°34' W 122°32'0 0.0
2018-Feb-13 14:28N 47°34' W 122°32'0 0.0
2018-Feb-13 13:58N 47°34' W 122°32'0 0.0
2018-Feb-13 13:28N 47°34' W 122°32'0 0.0
2018-Feb-13 12:58N 47°34' W 122°32'0 0.0
2018-Feb-13 12:28N 47°34' W 122°32'0 0.0
2018-Feb-13 11:58N 47°34' W 122°32'0 0.0
2018-Feb-13 11:28N 47°34' W 122°32'0 0.0
2018-Feb-13 10:55N 47°34' W 122°32'0 0.0
2018-Feb-13 10:28N 47°34' W 122°32'0 0.0
2018-Feb-13 09:58N 47°34' W 122°32'0 0.0
2018-Feb-13 09:28N 47°34' W 122°32'0 0.0
2018-Feb-13 08:58N 47°34' W 122°32'0 0.0
2018-Feb-13 08:25N 47°34' W 122°32'0 0.0
2018-Feb-13 07:58N 47°34' W 122°32'0 0.0
2018-Feb-13 07:28N 47°34' W 122°32'0 0.0
2018-Feb-13 06:58N 47°34' W 122°32'0 0.0
2018-Feb-13 06:28N 47°34' W 122°32'0 0.0
2018-Feb-13 05:58N 47°34' W 122°32'0 0.0
2018-Feb-13 05:25N 47°34' W 122°32'0 0.0
2018-Feb-13 04:58N 47°34' W 122°32'0 0.0
2018-Feb-13 04:25N 47°34' W 122°32'0 0.0
2018-Feb-13 03:58N 47°34' W 122°32'0 0.0
2018-Feb-13 03:28N 47°34' W 122°32'0 0.0
2018-Feb-13 02:58N 47°34' W 122°32'0 0.0
2018-Feb-13 02:28N 47°34' W 122°32'0 0.0
2018-Feb-13 01:58N 47°34' W 122°32'0 0.0
2018-Feb-13 01:28N 47°34' W 122°32'0 0.0
2018-Feb-13 00:58N 47°34' W 122°32'0 0.0
2018-Feb-13 00:28N 47°34' W 122°32'0 0.0
2018-Feb-12 23:58N 47°34' W 122°32'0 0.0
2018-Feb-12 23:28N 47°34' W 122°32'0 0.0
2018-Feb-12 22:58N 47°34' W 122°32'0 0.0
2018-Feb-12 22:28N 47°34' W 122°32'0 0.0
2018-Feb-12 21:58N 47°34' W 122°32'0 0.0
2018-Feb-12 21:28N 47°34' W 122°32'0 0.0
2018-Feb-12 20:58N 47°34' W 122°32'0 0.0
2018-Feb-12 20:28N 47°34' W 122°32'0 0.0
2018-Feb-12 19:58N 47°34' W 122°32'0 0.0
2018-Feb-12 19:28N 47°34' W 122°32'0 0.0
2018-Feb-12 18:58N 47°34' W 122°32'0 0.0
2018-Feb-12 18:28N 47°34' W 122°32'0 0.0
2018-Feb-12 17:58N 47°34' W 122°32'0 0.0
2018-Feb-12 17:28N 47°34' W 122°32'0 0.0
2018-Feb-12 16:58N 47°34' W 122°32'0 0.0
2018-Feb-12 16:28N 47°34' W 122°32'0 0.0
2018-Feb-12 15:58N 47°34' W 122°32'1 2.2
2018-Feb-12 15:30N 47°33' W 122°31'1 2.6
2018-Feb-12 15:01N 47°32' W 122°30'3 5.5
2018-Feb-12 14:30N 47°29' W 122°30'3 5.7
2018-Feb-12 14:00N 47°26' W 122°31'3 5.6
2018-Feb-12 13:30N 47°23' W 122°32'3 5.5
2018-Feb-12 12:58N 47°20' W 122°32'3 6.4
2018-Feb-12 12:30N 47°18' W 122°29'3 5.7
2018-Feb-12 12:00N 47°17' W 122°25'1 1.1
2018-Feb-12 10:48N 47°16' W 122°24'0 0.0
2018-Feb-12 10:24N 47°16' W 122°24'0 0.0
2018-Feb-12 09:51N 47°16' W 122°24'0 0.0
2018-Feb-12 09:24N 47°16' W 122°24'0 0.0
2018-Feb-12 08:54N 47°16' W 122°24'0 0.0
2018-Feb-12 08:27N 47°16' W 122°24'0 0.0
2018-Feb-12 08:00N 47°16' W 122°24'0 0.0
2018-Feb-12 07:03N 47°16' W 122°24'0 0.0
2018-Feb-12 06:57N 47°16' W 122°24'0 0.1
2018-Feb-12 06:15N 47°16' W 122°24'0 0.0
2018-Feb-11 16:40N 47°16' W 122°24'3 0.1
2018-Feb-10 18:34N 47°18' W 122°27'1 9.5
2018-Feb-10 18:26N 47°19' W 122°27'410.0
2018-Feb-10 18:00N 47°22' W 122°23'5 9.3
2018-Feb-10 17:30N 47°27' W 122°23'510.0
2018-Feb-10 17:00N 47°32' W 122°25'4 8.4
2018-Feb-10 16:31N 47°36' W 122°23'2 4.7
2018-Feb-10 16:00N 47°34' W 122°21'1 1.8
2018-Feb-10 15:25N 47°35' W 122°21'0 0.0
2018-Feb-10 15:00N 47°35' W 122°21'0 0.0
2018-Feb-10 14:20N 47°35' W 122°21'0 0.0
2018-Feb-10 13:53N 47°35' W 122°21'0 0.0
2018-Feb-10 13:29N 47°35' W 122°21'0 0.0
2018-Feb-10 12:58N 47°35' W 122°21'0 0.0
2018-Feb-10 12:21N 47°35' W 122°21'0 0.0
2018-Feb-10 12:00N 47°35' W 122°21'0 0.0
2018-Feb-10 11:24N 47°35' W 122°21'0 0.0
2018-Feb-10 10:18N 47°35' W 122°21'0 0.0
2018-Feb-10 09:56N 47°35' W 122°21'0 0.0
2018-Feb-10 09:27N 47°35' W 122°21'0 0.4
2018-Feb-10 09:00N 47°36' W 122°21'0 0.4
2018-Feb-10 08:30N 47°36' W 122°21'0 0.0
2018-Feb-10 08:00N 47°36' W 122°21'0 0.1
2018-Feb-10 07:26N 47°36' W 122°21'0 0.1
2018-Feb-10 06:59N 47°36' W 122°21'0 0.0
2018-Feb-10 06:30N 47°36' W 122°21'0 0.0
2018-Feb-10 06:00N 47°36' W 122°21'0 0.0
2018-Feb-10 05:30N 47°36' W 122°21'0 0.0
2018-Feb-10 04:58N 47°36' W 122°21'0 0.0
2018-Feb-10 04:31N 47°36' W 122°21'0 0.0
2018-Feb-10 04:00N 47°36' W 122°21'0 0.0
2018-Feb-10 03:28N 47°36' W 122°21'0 0.0
2018-Feb-10 03:00N 47°36' W 122°21'0 0.0
2018-Feb-10 02:30N 47°36' W 122°21'0 0.0
2018-Feb-10 02:00N 47°36' W 122°21'0 0.0
2018-Feb-10 01:30N 47°36' W 122°21'0 0.0
2018-Feb-10 01:00N 47°36' W 122°21'0 0.0
2018-Feb-10 00:29N 47°36' W 122°21'0 0.0
2018-Feb-09 23:56N 47°36' W 122°21'0 0.0
2018-Feb-09 23:30N 47°36' W 122°21'0 0.0
2018-Feb-09 23:00N 47°36' W 122°21'0 0.0
2018-Feb-09 22:46N 47°36' W 122°21'0 0.1
2018-Feb-09 21:01N 47°35' W 122°21'0 0.0
2018-Feb-09 18:31N 47°35' W 122°21'4 1.1
2018-Feb-09 14:30N 47°33' W 122°25'16 0.8
2018-Feb-08 17:00N 47°16' W 122°27'1 0.1
2018-Feb-08 00:35N 47°16' W 122°25'0 0.0
2018-Feb-08 00:08N 47°16' W 122°25'0 0.0
2018-Feb-07 23:40N 47°16' W 122°25'0 0.2
2018-Feb-07 23:25N 47°16' W 122°25'0 0.0
2018-Feb-07 22:23N 47°16' W 122°25'0 0.2
2018-Feb-07 21:58N 47°16' W 122°25'1 1.3
2018-Feb-07 21:31N 47°17' W 122°25'  
Track history (hours):
 
Tides and Currents Weather Stations Pressure Air Temp Water Temp Dewpoint Dewpoint Depression Visibility Wind Speed Wind Dir Waves Ship Positions

Alyssa Ann

Owner: Harley Marine Services, INC, SEATTLE, WA. More information available from US FCC via Universal Licensing System and Coast Guard Vessel Documentation Center.

Last reported at 2018-Feb-17 16:39 UTC. Time now 2018-Feb-18 06:44 UTC.
Position N 47°16' W 122°24'.

MMSI: 366979708.

Date/timePositionNaut miles runAvg speedWind from/ knotsBaromVisibWave heightAir tempDewpointWater temp
2018-Feb-17 16:39N 47°16' W 122°24'0 0.2
2018-Feb-17 16:27N 47°16' W 122°24'0 0.0
2018-Feb-17 15:35N 47°16' W 122°24'0 0.0
2018-Feb-15 15:29N 47°16' W 122°24'1 2.1
2018-Feb-15 14:56N 47°15' W 122°23'2 3.2
2018-Feb-15 14:22N 47°17' W 122°25'0 0.0
2018-Feb-15 13:09N 47°17' W 122°25'1 0.1
2018-Feb-15 04:06N 47°16' W 122°24'0 4.5
2018-Feb-15 04:00N 47°16' W 122°24'1 0.7
2018-Feb-15 02:51N 47°17' W 122°25'1 0.9
2018-Feb-15 02:16N 47°17' W 122°25'2 0.2
2018-Feb-14 18:43N 47°16' W 122°23'0 0.3
2018-Feb-14 18:26N 47°16' W 122°23'1 0.1
2018-Feb-14 02:33N 47°17' W 122°24'0 5.7
2018-Feb-14 02:29N 47°17' W 122°25'1 1.8
2018-Feb-14 02:00N 47°17' W 122°26'1 2.5
2018-Feb-14 01:30N 47°18' W 122°28'3 6.8
2018-Feb-14 01:00N 47°20' W 122°32'3 6.1
2018-Feb-14 00:30N 47°23' W 122°32'3 6.7
2018-Feb-14 00:00N 47°26' W 122°31'3 6.7
2018-Feb-13 23:30N 47°29' W 122°30'3 6.1
2018-Feb-13 23:00N 47°32' W 122°31'1 2.9
2018-Feb-13 22:30N 47°34' W 122°32'0 0.0
2018-Feb-13 22:00N 47°34' W 122°32'0 0.0
2018-Feb-13 21:28N 47°34' W 122°32'0 0.0
2018-Feb-13 20:58N 47°34' W 122°32'0 0.0
2018-Feb-13 20:28N 47°34' W 122°32'0 0.0
2018-Feb-13 19:55N 47°34' W 122°32'0 0.0
2018-Feb-13 19:28N 47°34' W 122°32'0 0.0
2018-Feb-13 18:58N 47°34' W 122°32'0 0.0
2018-Feb-13 18:28N 47°34' W 122°32'0 0.0
2018-Feb-13 17:58N 47°34' W 122°32'0 0.0
2018-Feb-13 17:28N 47°34' W 122°32'0 0.0
2018-Feb-13 16:58N 47°34' W 122°32'0 0.0
2018-Feb-13 16:28N 47°34' W 122°32'0 0.0
2018-Feb-13 15:58N 47°34' W 122°32'0 0.0
2018-Feb-13 15:28N 47°34' W 122°32'0 0.0
2018-Feb-13 14:58N 47°34' W 122°32'0 0.0
2018-Feb-13 14:28N 47°34' W 122°32'0 0.0
2018-Feb-13 13:58N 47°34' W 122°32'0 0.0
2018-Feb-13 13:28N 47°34' W 122°32'0 0.0
2018-Feb-13 12:58N 47°34' W 122°32'0 0.0
2018-Feb-13 12:28N 47°34' W 122°32'0 0.0
2018-Feb-13 11:58N 47°34' W 122°32'0 0.0
2018-Feb-13 11:28N 47°34' W 122°32'0 0.0
2018-Feb-13 10:55N 47°34' W 122°32'0 0.0
2018-Feb-13 10:28N 47°34' W 122°32'0 0.0
2018-Feb-13 09:58N 47°34' W 122°32'0 0.0
2018-Feb-13 09:28N 47°34' W 122°32'0 0.0
2018-Feb-13 08:58N 47°34' W 122°32'0 0.0
2018-Feb-13 08:25N 47°34' W 122°32'0 0.0
2018-Feb-13 07:58N 47°34' W 122°32'0 0.0
2018-Feb-13 07:28N 47°34' W 122°32'0 0.0
2018-Feb-13 06:58N 47°34' W 122°32'0 0.0
2018-Feb-13 06:28N 47°34' W 122°32'0 0.0
2018-Feb-13 05:58N 47°34' W 122°32'0 0.0
2018-Feb-13 05:25N 47°34' W 122°32'0 0.0
2018-Feb-13 04:58N 47°34' W 122°32'0 0.0
2018-Feb-13 04:25N 47°34' W 122°32'0 0.0
2018-Feb-13 03:58N 47°34' W 122°32'0 0.0
2018-Feb-13 03:28N 47°34' W 122°32'0 0.0
2018-Feb-13 02:58N 47°34' W 122°32'0 0.0
2018-Feb-13 02:28N 47°34' W 122°32'0 0.0
2018-Feb-13 01:58N 47°34' W 122°32'0 0.0
2018-Feb-13 01:28N 47°34' W 122°32'0 0.0
2018-Feb-13 00:58N 47°34' W 122°32'0 0.0
2018-Feb-13 00:28N 47°34' W 122°32'0 0.0
2018-Feb-12 23:58N 47°34' W 122°32'0 0.0
2018-Feb-12 23:28N 47°34' W 122°32'0 0.0
2018-Feb-12 22:58N 47°34' W 122°32'0 0.0
2018-Feb-12 22:28N 47°34' W 122°32'0 0.0
2018-Feb-12 21:58N 47°34' W 122°32'0 0.0
2018-Feb-12 21:28N 47°34' W 122°32'0 0.0
2018-Feb-12 20:58N 47°34' W 122°32'0 0.0
2018-Feb-12 20:28N 47°34' W 122°32'0 0.0
2018-Feb-12 19:58N 47°34' W 122°32'0 0.0
2018-Feb-12 19:28N 47°34' W 122°32'0 0.0
2018-Feb-12 18:58N 47°34' W 122°32'0 0.0
2018-Feb-12 18:28N 47°34' W 122°32'0 0.0
2018-Feb-12 17:58N 47°34' W 122°32'0 0.0
2018-Feb-12 17:28N 47°34' W 122°32'0 0.0
2018-Feb-12 16:58N 47°34' W 122°32'0 0.0
2018-Feb-12 16:28N 47°34' W 122°32'0 0.0
2018-Feb-12 15:58N 47°34' W 122°32'1 2.2
2018-Feb-12 15:30N 47°33' W 122°31'1 2.6
2018-Feb-12 15:01N 47°32' W 122°30'3 5.5
2018-Feb-12 14:30N 47°29' W 122°30'3 5.7
2018-Feb-12 14:00N 47°26' W 122°31'3 5.6
2018-Feb-12 13:30N 47°23' W 122°32'3 5.5
2018-Feb-12 12:58N 47°20' W 122°32'3 6.4
2018-Feb-12 12:30N 47°18' W 122°29'3 5.7
2018-Feb-12 12:00N 47°17' W 122°25'1 1.1
2018-Feb-12 10:48N 47°16' W 122°24'0 0.0
2018-Feb-12 10:24N 47°16' W 122°24'0 0.0
2018-Feb-12 09:51N 47°16' W 122°24'0 0.0
2018-Feb-12 09:24N 47°16' W 122°24'0 0.0
2018-Feb-12 08:54N 47°16' W 122°24'0 0.0
2018-Feb-12 08:27N 47°16' W 122°24'0 0.0
2018-Feb-12 08:00N 47°16' W 122°24'0 0.0
2018-Feb-12 07:03N 47°16' W 122°24'0 0.0
2018-Feb-12 06:57N 47°16' W 122°24'0 0.1
2018-Feb-12 06:15N 47°16' W 122°24'0 0.0
2018-Feb-11 16:40N 47°16' W 122°24'3 0.1
2018-Feb-10 18:34N 47°18' W 122°27'1 9.5
2018-Feb-10 18:26N 47°19' W 122°27'410.0
2018-Feb-10 18:00N 47°22' W 122°23'5 9.3
2018-Feb-10 17:30N 47°27' W 122°23'510.0
2018-Feb-10 17:00N 47°32' W 122°25'4 8.4
2018-Feb-10 16:31N 47°36' W 122°23'2 4.7
2018-Feb-10 16:00N 47°34' W 122°21'1 1.8
2018-Feb-10 15:25N 47°35' W 122°21'0 0.0
2018-Feb-10 15:00N 47°35' W 122°21'0 0.0
2018-Feb-10 14:20N 47°35' W 122°21'0 0.0
2018-Feb-10 13:53N 47°35' W 122°21'0 0.0
2018-Feb-10 13:29N 47°35' W 122°21'0 0.0
2018-Feb-10 12:58N 47°35' W 122°21'0 0.0
2018-Feb-10 12:21N 47°35' W 122°21'0 0.0
2018-Feb-10 12:00N 47°35' W 122°21'0 0.0
2018-Feb-10 11:24N 47°35' W 122°21'0 0.0
2018-Feb-10 10:18N 47°35' W 122°21'0 0.0
2018-Feb-10 09:56N 47°35' W 122°21'0 0.0
2018-Feb-10 09:27N 47°35' W 122°21'0 0.4
2018-Feb-10 09:00N 47°36' W 122°21'0 0.4
2018-Feb-10 08:30N 47°36' W 122°21'0 0.0
2018-Feb-10 08:00N 47°36' W 122°21'0 0.1
2018-Feb-10 07:26N 47°36' W 122°21'0 0.1
2018-Feb-10 06:59N 47°36' W 122°21'0 0.0
2018-Feb-10 06:30N 47°36' W 122°21'0 0.0
2018-Feb-10 06:00N 47°36' W 122°21'0 0.0
2018-Feb-10 05:30N 47°36' W 122°21'0 0.0
2018-Feb-10 04:58N 47°36' W 122°21'0 0.0
2018-Feb-10 04:31N 47°36' W 122°21'0 0.0
2018-Feb-10 04:00N 47°36' W 122°21'0 0.0
2018-Feb-10 03:28N 47°36' W 122°21'0 0.0
2018-Feb-10 03:00N 47°36' W 122°21'0 0.0
2018-Feb-10 02:30N 47°36' W 122°21'0 0.0
2018-Feb-10 02:00N 47°36' W 122°21'0 0.0
2018-Feb-10 01:30N 47°36' W 122°21'0 0.0
2018-Feb-10 01:00N 47°36' W 122°21'0 0.0
2018-Feb-10 00:29N 47°36' W 122°21'0 0.0
2018-Feb-09 23:56N 47°36' W 122°21'0 0.0
2018-Feb-09 23:30N 47°36' W 122°21'0 0.0
2018-Feb-09 23:00N 47°36' W 122°21'0 0.0
2018-Feb-09 22:46N 47°36' W 122°21'0 0.1
2018-Feb-09 21:01N 47°35' W 122°21'0 0.0
2018-Feb-09 18:31N 47°35' W 122°21'4 1.1
2018-Feb-09 14:30N 47°33' W 122°25'16 0.8
2018-Feb-08 17:00N 47°16' W 122°27'1 0.1
2018-Feb-08 00:35N 47°16' W 122°25'0 0.0
2018-Feb-08 00:08N 47°16' W 122°25'0 0.0
2018-Feb-07 23:40N 47°16' W 122°25'0 0.2
2018-Feb-07 23:25N 47°16' W 122°25'0 0.0
2018-Feb-07 22:23N 47°16' W 122°25'0 0.2
2018-Feb-07 21:58N 47°16' W 122°25'1 1.3
2018-Feb-07 21:31N 47°17' W 122°25'  

Dump ship's entire track history